sensor_id;sensor_type;location;lat;lon;timestamp;pressure;altitude;pressure_sealevel;temperature;humidity
46241;BME280;31961;52.416;-0.732;2023-04-01T00:01:39;98995.94;;;4.96;100.00
46241;BME280;31961;52.416;-0.732;2023-04-01T00:04:07;98998.81;;;5.19;100.00
46241;BME280;31961;52.416;-0.732;2023-04-01T00:06:34;99003.85;;;4.98;100.00
46241;BME280;31961;52.416;-0.732;2023-04-01T00:09:03;99006.31;;;5.07;100.00
46241;BME280;31961;52.416;-0.732;2023-04-01T00:11:29;99010.17;;;5.22;100.00
46241;BME280;31961;52.416;-0.732;2023-04-01T00:13:57;99015.18;;;4.71;100.00
46241;BME280;31961;52.416;-0.732;2023-04-01T00:16:24;99023.30;;;4.39;100.00
46241;BME280;31961;52.416;-0.732;2023-04-01T00:18:52;99024.46;;;5.53;100.00
46241;BME280;31961;52.416;-0.732;2023-04-01T00:21:20;99022.67;;;5.41;100.00
46241;BME280;31961;52.416;-0.732;2023-04-01T00:23:48;99026.69;;;5.75;100.00
46241;BME280;31961;52.416;-0.732;2023-04-01T00:26:15;99024.12;;;5.32;100.00
46241;BME280;31961;52.416;-0.732;2023-04-01T00:28:42;99024.87;;;5.43;100.00
46241;BME280;31961;52.416;-0.732;2023-04-01T00:31:10;99029.94;;;5.05;100.00
46241;BME280;31961;52.416;-0.732;2023-04-01T00:33:38;99031.72;;;5.52;100.00
46241;BME280;31961;52.416;-0.732;2023-04-01T00:36:08;99033.44;;;5.53;100.00
46241;BME280;31961;52.416;-0.732;2023-04-01T00:38:35;99033.78;;;5.14;100.00
46241;BME280;31961;52.416;-0.732;2023-04-01T00:41:03;99036.09;;;5.32;100.00
46241;BME280;31961;52.416;-0.732;2023-04-01T00:43:31;99036.49;;;5.67;100.00
46241;BME280;31961;52.416;-0.732;2023-04-01T00:45:58;99037.92;;;4.76;100.00
46241;BME280;31961;52.416;-0.732;2023-04-01T00:48:28;99048.65;;;4.48;100.00
46241;BME280;31961;52.416;-0.732;2023-04-01T00:50:59;99047.78;;;4.82;100.00
46241;BME280;31961;52.416;-0.732;2023-04-01T00:53:28;99051.17;;;4.99;100.00
46241;BME280;31961;52.416;-0.732;2023-04-01T00:55:59;99055.57;;;4.82;100.00
46241;BME280;31961;52.416;-0.732;2023-04-01T00:58:31;99055.63;;;4.80;100.00
46241;BME280;31961;52.416;-0.732;2023-04-01T01:01:00;99057.01;;;5.18;100.00
46241;BME280;31961;52.416;-0.732;2023-04-01T01:03:27;99055.84;;;4.98;100.00
46241;BME280;31961;52.416;-0.732;2023-04-01T01:06:08;99057.01;;;5.43;100.00
46241;BME280;31961;52.416;-0.732;2023-04-01T01:08:47;99068.20;;;4.40;100.00
46241;BME280;31961;52.416;-0.732;2023-04-01T01:11:23;99065.23;;;5.07;100.00
46241;BME280;31961;52.416;-0.732;2023-04-01T01:14:00;99069.71;;;4.95;100.00
46241;BME280;31961;52.416;-0.732;2023-04-01T01:16:30;99074.26;;;4.84;100.00
46241;BME280;31961;52.416;-0.732;2023-04-01T01:19:06;99078.31;;;4.48;100.00
46241;BME280;31961;52.416;-0.732;2023-04-01T01:22:02;99081.57;;;4.69;100.00
46241;BME280;31961;52.416;-0.732;2023-04-01T01:24:47;99086.85;;;4.31;100.00
46241;BME280;31961;52.416;-0.732;2023-04-01T01:27:20;99098.42;;;4.27;100.00
46241;BME280;31961;52.416;-0.732;2023-04-01T01:30:06;99102.21;;;4.19;100.00
46241;BME280;31961;52.416;-0.732;2023-04-01T01:32:50;99104.44;;;4.10;100.00
46241;BME280;31961;52.416;-0.732;2023-04-01T01:35:25;99112.16;;;4.08;100.00
46241;BME280;31961;52.416;-0.732;2023-04-01T01:37:56;99110.63;;;4.17;100.00
46241;BME280;31961;52.416;-0.732;2023-04-01T01:40:25;99109.77;;;4.20;100.00
46241;BME280;31961;52.416;-0.732;2023-04-01T01:42:56;99108.14;;;4.71;100.00
46241;BME280;31961;52.416;-0.732;2023-04-01T01:45:26;99112.90;;;4.24;100.00
46241;BME280;31961;52.416;-0.732;2023-04-01T01:47:55;99118.41;;;4.41;100.00
46241;BME280;31961;52.416;-0.732;2023-04-01T01:50:24;99116.94;;;4.69;100.00
46241;BME280;31961;52.416;-0.732;2023-04-01T01:53:00;99123.73;;;4.58;100.00
46241;BME280;31961;52.416;-0.732;2023-04-01T01:55:29;99128.07;;;4.53;100.00
46241;BME280;31961;52.416;-0.732;2023-04-01T01:57:59;99132.39;;;4.32;100.00
46241;BME280;31961;52.416;-0.732;2023-04-01T02:00:28;99129.64;;;4.51;100.00
46241;BME280;31961;52.416;-0.732;2023-04-01T02:02:57;99133.09;;;4.12;100.00
46241;BME280;31961;52.416;-0.732;2023-04-01T02:05:28;99139.87;;;4.15;100.00
46241;BME280;31961;52.416;-0.732;2023-04-01T02:08:01;99139.48;;;4.21;100.00
46241;BME280;31961;52.416;-0.732;2023-04-01T02:10:32;99139.08;;;3.84;100.00
46241;BME280;31961;52.416;-0.732;2023-04-01T02:13:07;99142.08;;;3.94;100.00
46241;BME280;31961;52.416;-0.732;2023-04-01T02:15:41;99151.45;;;4.38;100.00
46241;BME280;31961;52.416;-0.732;2023-04-01T02:18:11;99155.30;;;4.20;100.00
46241;BME280;31961;52.416;-0.732;2023-04-01T02:20:40;99160.20;;;4.20;100.00
46241;BME280;31961;52.416;-0.732;2023-04-01T02:23:09;99160.47;;;3.94;100.00
46241;BME280;31961;52.416;-0.732;2023-04-01T02:25:38;99169.50;;;4.40;100.00
46241;BME280;31961;52.416;-0.732;2023-04-01T02:28:08;99173.96;;;4.33;100.00
46241;BME280;31961;52.416;-0.732;2023-04-01T02:30:38;99178.57;;;4.19;100.00
46241;BME280;31961;52.416;-0.732;2023-04-01T02:33:06;99179.51;;;3.84;100.00
46241;BME280;31961;52.416;-0.732;2023-04-01T02:35:35;99181.49;;;4.02;100.00
46241;BME280;31961;52.416;-0.732;2023-04-01T02:38:03;99182.37;;;4.14;100.00
46241;BME280;31961;52.416;-0.732;2023-04-01T02:40:42;99189.17;;;4.34;100.00
46241;BME280;31961;52.416;-0.732;2023-04-01T02:43:09;99191.96;;;4.20;100.00
46241;BME280;31961;52.416;-0.732;2023-04-01T02:45:37;99191.42;;;3.51;100.00
46241;BME280;31961;52.416;-0.732;2023-04-01T02:48:04;99190.22;;;3.70;100.00
46241;BME280;31961;52.416;-0.732;2023-04-01T02:50:32;99194.03;;;3.13;100.00
46241;BME280;31961;52.416;-0.732;2023-04-01T02:53:00;99192.37;;;3.75;100.00
46241;BME280;31961;52.416;-0.732;2023-04-01T02:55:27;99191.02;;;4.41;100.00
46241;BME280;31961;52.416;-0.732;2023-04-01T02:57:55;99191.77;;;4.16;100.00
46241;BME280;31961;52.416;-0.732;2023-04-01T03:00:22;99194.70;;;4.14;100.00
46241;BME280;31961;52.416;-0.732;2023-04-01T03:02:49;99201.06;;;3.59;100.00
46241;BME280;31961;52.416;-0.732;2023-04-01T03:05:17;99202.98;;;3.70;100.00
46241;BME280;31961;52.416;-0.732;2023-04-01T03:07:44;99208.04;;;3.84;100.00
46241;BME280;31961;52.416;-0.732;2023-04-01T03:10:12;99207.60;;;3.86;100.00
46241;BME280;31961;52.416;-0.732;2023-04-01T03:12:40;99211.81;;;3.81;100.00
46241;BME280;31961;52.416;-0.732;2023-04-01T03:15:10;99216.55;;;3.81;100.00
46241;BME280;31961;52.416;-0.732;2023-04-01T03:17:38;99217.21;;;3.87;100.00
46241;BME280;31961;52.416;-0.732;2023-04-01T03:20:07;99219.48;;;3.68;100.00
46241;BME280;31961;52.416;-0.732;2023-04-01T03:22:34;99225.42;;;3.97;100.00
46241;BME280;31961;52.416;-0.732;2023-04-01T03:25:03;99227.78;;;3.28;100.00
46241;BME280;31961;52.416;-0.732;2023-04-01T03:27:30;99226.87;;;3.63;100.00
46241;BME280;31961;52.416;-0.732;2023-04-01T03:29:58;99232.28;;;4.26;100.00
46241;BME280;31961;52.416;-0.732;2023-04-01T03:32:25;99233.77;;;4.27;100.00
46241;BME280;31961;52.416;-0.732;2023-04-01T03:34:53;99231.44;;;3.74;100.00
46241;BME280;31961;52.416;-0.732;2023-04-01T03:37:20;99235.46;;;4.22;100.00
46241;BME280;31961;52.416;-0.732;2023-04-01T03:39:48;99236.44;;;3.66;100.00
46241;BME280;31961;52.416;-0.732;2023-04-01T03:42:15;99241.05;;;3.54;100.00
46241;BME280;31961;52.416;-0.732;2023-04-01T03:44:42;99244.43;;;3.96;100.00
46241;BME280;31961;52.416;-0.732;2023-04-01T03:47:10;99247.50;;;3.84;100.00
46241;BME280;31961;52.416;-0.732;2023-04-01T03:49:37;99251.28;;;3.99;100.00
46241;BME280;31961;52.416;-0.732;2023-04-01T03:52:04;99249.74;;;4.18;100.00
46241;BME280;31961;52.416;-0.732;2023-04-01T03:54:34;99257.23;;;4.90;100.00
46241;BME280;31961;52.416;-0.732;2023-04-01T03:57:01;99252.28;;;5.45;100.00
46241;BME280;31961;52.416;-0.732;2023-04-01T03:59:29;99255.69;;;4.54;100.00
46241;BME280;31961;52.416;-0.732;2023-04-01T04:01:56;99260.12;;;4.36;100.00
46241;BME280;31961;52.416;-0.732;2023-04-01T04:04:24;99263.01;;;4.49;100.00
46241;BME280;31961;52.416;-0.732;2023-04-01T04:06:51;99268.32;;;4.38;100.00
46241;BME280;31961;52.416;-0.732;2023-04-01T04:09:19;99267.54;;;3.71;100.00
46241;BME280;31961;52.416;-0.732;2023-04-01T04:11:46;99271.76;;;4.52;100.00
46241;BME280;31961;52.416;-0.732;2023-04-01T04:14:14;99272.03;;;3.87;100.00
46241;BME280;31961;52.416;-0.732;2023-04-01T04:16:41;99275.06;;;4.17;100.00
46241;BME280;31961;52.416;-0.732;2023-04-01T04:19:09;99276.29;;;4.26;100.00
46241;BME280;31961;52.416;-0.732;2023-04-01T04:21:36;99282.34;;;3.85;100.00
46241;BME280;31961;52.416;-0.732;2023-04-01T04:24:04;99288.52;;;4.36;100.00
46241;BME280;31961;52.416;-0.732;2023-04-01T04:26:30;99285.56;;;3.95;100.00
46241;BME280;31961;52.416;-0.732;2023-04-01T04:28:58;99288.48;;;4.30;100.00
46241;BME280;31961;52.416;-0.732;2023-04-01T04:31:26;99289.15;;;3.87;100.00
46241;BME280;31961;52.416;-0.732;2023-04-01T04:33:54;99288.66;;;4.17;100.00
46241;BME280;31961;52.416;-0.732;2023-04-01T04:36:22;99292.32;;;4.38;100.00
46241;BME280;31961;52.416;-0.732;2023-04-01T04:38:49;99291.71;;;4.62;100.00
46241;BME280;31961;52.416;-0.732;2023-04-01T04:41:18;99295.27;;;5.02;100.00
46241;BME280;31961;52.416;-0.732;2023-04-01T04:43:50;99301.88;;;4.60;100.00
46241;BME280;31961;52.416;-0.732;2023-04-01T04:46:17;99307.38;;;4.91;100.00
46241;BME280;31961;52.416;-0.732;2023-04-01T04:48:44;99310.02;;;3.58;100.00
46241;BME280;31961;52.416;-0.732;2023-04-01T04:51:14;99323.06;;;3.32;100.00
46241;BME280;31961;52.416;-0.732;2023-04-01T04:53:41;99326.20;;;3.33;100.00
46241;BME280;31961;52.416;-0.732;2023-04-01T04:56:09;99326.92;;;4.26;100.00
46241;BME280;31961;52.416;-0.732;2023-04-01T04:58:38;99328.81;;;3.87;100.00
46241;BME280;31961;52.416;-0.732;2023-04-01T05:01:07;99325.40;;;4.39;100.00
46241;BME280;31961;52.416;-0.732;2023-04-01T05:03:35;99330.44;;;4.39;100.00
46241;BME280;31961;52.416;-0.732;2023-04-01T05:06:02;99336.80;;;3.64;100.00
46241;BME280;31961;52.416;-0.732;2023-04-01T05:08:30;99338.80;;;4.15;100.00
46241;BME280;31961;52.416;-0.732;2023-04-01T05:10:57;99337.98;;;3.74;100.00
46241;BME280;31961;52.416;-0.732;2023-04-01T05:13:25;99347.01;;;4.32;100.00
46241;BME280;31961;52.416;-0.732;2023-04-01T05:15:52;99347.45;;;4.57;100.00
46241;BME280;31961;52.416;-0.732;2023-04-01T05:18:20;99355.31;;;3.89;100.00
46241;BME280;31961;52.416;-0.732;2023-04-01T05:20:48;99357.17;;;4.02;100.00
46241;BME280;31961;52.416;-0.732;2023-04-01T05:23:16;99356.39;;;4.86;100.00
46241;BME280;31961;52.416;-0.732;2023-04-01T05:25:44;99361.65;;;4.60;100.00
46241;BME280;31961;52.416;-0.732;2023-04-01T05:28:11;99366.10;;;4.59;100.00
46241;BME280;31961;52.416;-0.732;2023-04-01T05:30:40;99374.08;;;4.26;100.00
46241;BME280;31961;52.416;-0.732;2023-04-01T05:33:07;99373.37;;;4.00;100.00
46241;BME280;31961;52.416;-0.732;2023-04-01T05:35:34;99375.34;;;3.96;100.00
46241;BME280;31961;52.416;-0.732;2023-04-01T05:38:01;99376.50;;;3.52;100.00
46241;BME280;31961;52.416;-0.732;2023-04-01T05:40:29;99377.03;;;3.63;100.00
46241;BME280;31961;52.416;-0.732;2023-04-01T05:42:57;99374.77;;;4.56;100.00
46241;BME280;31961;52.416;-0.732;2023-04-01T05:45:25;99370.42;;;4.20;100.00
46241;BME280;31961;52.416;-0.732;2023-04-01T05:47:52;99383.13;;;4.10;100.00
46241;BME280;31961;52.416;-0.732;2023-04-01T05:50:20;99385.51;;;3.90;100.00
46241;BME280;31961;52.416;-0.732;2023-04-01T05:52:48;99384.89;;;4.25;100.00
46241;BME280;31961;52.416;-0.732;2023-04-01T05:55:15;99389.64;;;4.22;100.00
46241;BME280;31961;52.416;-0.732;2023-04-01T05:57:44;99393.36;;;4.23;100.00
46241;BME280;31961;52.416;-0.732;2023-04-01T06:00:12;99394.43;;;4.60;100.00
46241;BME280;31961;52.416;-0.732;2023-04-01T06:02:40;99395.89;;;4.99;100.00
46241;BME280;31961;52.416;-0.732;2023-04-01T06:05:15;99397.12;;;4.34;100.00
46241;BME280;31961;52.416;-0.732;2023-04-01T06:07:44;99402.43;;;5.19;100.00
46241;BME280;31961;52.416;-0.732;2023-04-01T06:10:15;99410.20;;;4.79;100.00
46241;BME280;31961;52.416;-0.732;2023-04-01T06:12:50;99414.23;;;5.23;100.00
46241;BME280;31961;52.416;-0.732;2023-04-01T06:15:25;99417.46;;;5.11;100.00
46241;BME280;31961;52.416;-0.732;2023-04-01T06:18:08;99417.86;;;4.79;100.00
46241;BME280;31961;52.416;-0.732;2023-04-01T06:20:43;99419.70;;;4.70;100.00
46241;BME280;31961;52.416;-0.732;2023-04-01T06:23:24;99426.24;;;4.40;100.00
46241;BME280;31961;52.416;-0.732;2023-04-01T06:26:09;99426.06;;;4.97;100.00
46241;BME280;31961;52.416;-0.732;2023-04-01T06:28:48;99427.76;;;4.74;100.00
46241;BME280;31961;52.416;-0.732;2023-04-01T06:31:33;99434.69;;;4.32;100.00
46241;BME280;31961;52.416;-0.732;2023-04-01T06:34:16;99436.71;;;4.25;100.00
46241;BME280;31961;52.416;-0.732;2023-04-01T06:36:59;99443.58;;;4.36;100.00
46241;BME280;31961;52.416;-0.732;2023-04-01T06:39:42;99443.39;;;5.10;100.00
46241;BME280;31961;52.416;-0.732;2023-04-01T06:42:23;99445.28;;;4.62;100.00
46241;BME280;31961;52.416;-0.732;2023-04-01T06:45:07;99451.12;;;4.64;100.00
46241;BME280;31961;52.416;-0.732;2023-04-01T06:47:49;99460.49;;;4.45;100.00
46241;BME280;31961;52.416;-0.732;2023-04-01T06:50:24;99463.17;;;4.66;100.00
46241;BME280;31961;52.416;-0.732;2023-04-01T06:53:00;99468.55;;;4.99;100.00
46241;BME280;31961;52.416;-0.732;2023-04-01T06:55:36;99469.49;;;5.05;100.00
46241;BME280;31961;52.416;-0.732;2023-04-01T06:58:05;99475.42;;;4.83;100.00
46241;BME280;31961;52.416;-0.732;2023-04-01T07:00:36;99476.09;;;4.51;100.00
46241;BME280;31961;52.416;-0.732;2023-04-01T07:03:13;99477.61;;;4.29;100.00
46241;BME280;31961;52.416;-0.732;2023-04-01T07:05:43;99479.56;;;4.01;100.00
46241;BME280;31961;52.416;-0.732;2023-04-01T07:08:13;99484.94;;;4.33;100.00
46241;BME280;31961;52.416;-0.732;2023-04-01T07:10:47;99490.68;;;4.95;100.00
46241;BME280;31961;52.416;-0.732;2023-04-01T07:13:20;99500.96;;;4.17;100.00
46241;BME280;31961;52.416;-0.732;2023-04-01T07:15:56;99499.76;;;4.01;100.00
46241;BME280;31961;52.416;-0.732;2023-04-01T07:18:32;99500.54;;;4.47;100.00
46241;BME280;31961;52.416;-0.732;2023-04-01T07:21:02;99509.74;;;4.29;100.00
46241;BME280;31961;52.416;-0.732;2023-04-01T07:23:33;99508.11;;;4.96;100.00
46241;BME280;31961;52.416;-0.732;2023-04-01T07:26:14;99507.55;;;4.63;100.00
46241;BME280;31961;52.416;-0.732;2023-04-01T07:28:42;99511.67;;;4.45;100.00
46241;BME280;31961;52.416;-0.732;2023-04-01T07:31:19;99515.10;;;4.24;100.00
46241;BME280;31961;52.416;-0.732;2023-04-01T07:33:57;99513.69;;;4.00;100.00
46241;BME280;31961;52.416;-0.732;2023-04-01T07:36:42;99514.02;;;4.71;100.00
46241;BME280;31961;52.416;-0.732;2023-04-01T07:39:30;99519.70;;;3.84;100.00
46241;BME280;31961;52.416;-0.732;2023-04-01T07:42:09;99527.11;;;3.47;100.00
46241;BME280;31961;52.416;-0.732;2023-04-01T07:44:51;99526.43;;;4.20;100.00
46241;BME280;31961;52.416;-0.732;2023-04-01T07:47:45;99529.71;;;3.98;100.00
46241;BME280;31961;52.416;-0.732;2023-04-01T07:50:27;99539.00;;;4.22;100.00
46241;BME280;31961;52.416;-0.732;2023-04-01T07:53:19;99542.86;;;4.58;100.00
46241;BME280;31961;52.416;-0.732;2023-04-01T07:56:05;99545.74;;;4.44;100.00
46241;BME280;31961;52.416;-0.732;2023-04-01T07:58:50;99548.88;;;4.76;100.00
46241;BME280;31961;52.416;-0.732;2023-04-01T08:01:43;99551.37;;;4.93;100.00
46241;BME280;31961;52.416;-0.732;2023-04-01T08:04:45;99561.28;;;4.70;100.00
46241;BME280;31961;52.416;-0.732;2023-04-01T08:07:22;99566.43;;;3.87;100.00
46241;BME280;31961;52.416;-0.732;2023-04-01T08:09:59;99572.39;;;4.00;100.00
46241;BME280;31961;52.416;-0.732;2023-04-01T08:12:55;99576.49;;;4.22;100.00
46241;BME280;31961;52.416;-0.732;2023-04-01T08:15:41;99578.93;;;4.61;100.00
46241;BME280;31961;52.416;-0.732;2023-04-01T08:18:35;99582.99;;;3.92;100.00
46241;BME280;31961;52.416;-0.732;2023-04-01T08:21:15;99593.51;;;4.22;100.00
46241;BME280;31961;52.416;-0.732;2023-04-01T08:23:56;99594.45;;;3.58;100.00
46241;BME280;31961;52.416;-0.732;2023-04-01T08:26:46;99601.32;;;3.71;100.00
46241;BME280;31961;52.416;-0.732;2023-04-01T08:29:27;99599.39;;;4.13;100.00
46241;BME280;31961;52.416;-0.732;2023-04-01T08:32:12;99599.83;;;3.91;100.00
46241;BME280;31961;52.416;-0.732;2023-04-01T08:34:51;99608.47;;;4.53;100.00
46241;BME280;31961;52.416;-0.732;2023-04-01T08:37:43;99611.55;;;4.03;100.00
46241;BME280;31961;52.416;-0.732;2023-04-01T08:40:46;99614.99;;;5.10;100.00
46241;BME280;31961;52.416;-0.732;2023-04-01T08:43:44;99615.63;;;4.57;100.00
46241;BME280;31961;52.416;-0.732;2023-04-01T08:46:50;99615.44;;;5.42;100.00
46241;BME280;31961;52.416;-0.732;2023-04-01T08:51:30;99623.03;;;4.43;100.00
46241;BME280;31961;52.416;-0.732;2023-04-01T08:54:35;99635.57;;;4.21;100.00
46241;BME280;31961;52.416;-0.732;2023-04-01T08:57:19;99643.30;;;4.03;100.00
46241;BME280;31961;52.416;-0.732;2023-04-01T09:00:00;99646.04;;;4.57;100.00
46241;BME280;31961;52.416;-0.732;2023-04-01T09:03:00;99648.78;;;4.58;100.00
46241;BME280;31961;52.416;-0.732;2023-04-01T09:08:25;99653.70;;;5.45;100.00
46241;BME280;31961;52.416;-0.732;2023-04-01T09:11:13;99661.39;;;4.20;100.00
46241;BME280;31961;52.416;-0.732;2023-04-01T09:14:06;99660.32;;;4.25;100.00
46241;BME280;31961;52.416;-0.732;2023-04-01T09:17:01;99657.60;;;4.74;100.00
46241;BME280;31961;52.416;-0.732;2023-04-01T09:20:02;99658.94;;;4.90;100.00
46241;BME280;31961;52.416;-0.732;2023-04-01T09:23:26;99659.76;;;5.10;100.00
46241;BME280;31961;52.416;-0.732;2023-04-01T09:26:29;99667.95;;;5.14;100.00
46241;BME280;31961;52.416;-0.732;2023-04-01T09:29:23;99669.01;;;5.16;100.00
46241;BME280;31961;52.416;-0.732;2023-04-01T09:32:23;99672.86;;;4.71;100.00
46241;BME280;31961;52.416;-0.732;2023-04-01T09:35:10;99681.16;;;4.92;100.00
46241;BME280;31961;52.416;-0.732;2023-04-01T09:38:22;99681.49;;;4.62;100.00
46241;BME280;31961;52.416;-0.732;2023-04-01T09:41:01;99685.68;;;4.40;100.00
46241;BME280;31961;52.416;-0.732;2023-04-01T09:43:58;99693.48;;;3.96;100.00
46241;BME280;31961;52.416;-0.732;2023-04-01T09:46:43;99696.47;;;4.16;100.00
46241;BME280;31961;52.416;-0.732;2023-04-01T09:49:37;99697.38;;;4.12;100.00
46241;BME280;31961;52.416;-0.732;2023-04-01T09:52:20;99698.07;;;4.39;100.00
46241;BME280;31961;52.416;-0.732;2023-04-01T09:55:17;99703.09;;;4.34;100.00
46241;BME280;31961;52.416;-0.732;2023-04-01T09:58:14;99708.03;;;4.39;100.00
46241;BME280;31961;52.416;-0.732;2023-04-01T10:07:35;99718.37;;;5.59;100.00
46241;BME280;31961;52.416;-0.732;2023-04-01T10:11:26;99729.91;;;3.36;100.00
46241;BME280;31961;52.416;-0.732;2023-04-01T10:16:43;99730.47;;;5.42;100.00
46241;BME280;31961;52.416;-0.732;2023-04-01T10:20:07;99735.72;;;4.81;100.00
46241;BME280;31961;52.416;-0.732;2023-04-01T10:23:17;99737.22;;;5.83;100.00
46241;BME280;31961;52.416;-0.732;2023-04-01T10:26:39;99742.93;;;4.82;100.00
46241;BME280;31961;52.416;-0.732;2023-04-01T10:30:09;99746.98;;;4.66;100.00
46241;BME280;31961;52.416;-0.732;2023-04-01T10:33:44;99758.61;;;4.20;100.00
46241;BME280;31961;52.416;-0.732;2023-04-01T10:36:53;99767.05;;;4.13;100.00
46241;BME280;31961;52.416;-0.732;2023-04-01T10:40:34;99774.83;;;4.16;100.00
46241;BME280;31961;52.416;-0.732;2023-04-01T10:43:52;99778.82;;;4.29;100.00
46241;BME280;31961;52.416;-0.732;2023-04-01T10:46:56;99785.15;;;4.40;100.00
46241;BME280;31961;52.416;-0.732;2023-04-01T10:51:19;99793.12;;;4.53;100.00
46241;BME280;31961;52.416;-0.732;2023-04-01T10:54:10;99792.45;;;4.62;100.00
46241;BME280;31961;52.416;-0.732;2023-04-01T10:57:00;99793.16;;;4.60;100.00
46241;BME280;31961;52.416;-0.732;2023-04-01T11:00:55;99790.71;;;5.53;100.00
46241;BME280;31961;52.416;-0.732;2023-04-01T11:05:03;99793.36;;;5.32;100.00
46241;BME280;31961;52.416;-0.732;2023-04-01T11:08:07;99797.38;;;5.01;100.00
46241;BME280;31961;52.416;-0.732;2023-04-01T11:11:36;99798.73;;;4.73;100.00
46241;BME280;31961;52.416;-0.732;2023-04-01T11:14:45;99807.22;;;4.35;100.00
46241;BME280;31961;52.416;-0.732;2023-04-01T11:17:38;99809.51;;;4.62;100.00
46241;BME280;31961;52.416;-0.732;2023-04-01T11:20:43;99814.69;;;4.66;100.00
46241;BME280;31961;52.416;-0.732;2023-04-01T11:23:23;99818.42;;;4.59;100.00
46241;BME280;31961;52.416;-0.732;2023-04-01T11:26:02;99825.27;;;4.71;100.00
46241;BME280;31961;52.416;-0.732;2023-04-01T11:30:32;99825.55;;;5.06;100.00
46241;BME280;31961;52.416;-0.732;2023-04-01T11:33:25;99832.94;;;4.79;100.00
46241;BME280;31961;52.416;-0.732;2023-04-01T11:36:05;99837.89;;;4.58;100.00
46241;BME280;31961;52.416;-0.732;2023-04-01T11:39:01;99842.97;;;4.85;100.00
46241;BME280;31961;52.416;-0.732;2023-04-01T11:41:39;99849.76;;;4.97;100.00
46241;BME280;31961;52.416;-0.732;2023-04-01T11:44:16;99851.61;;;5.20;100.00
46241;BME280;31961;52.416;-0.732;2023-04-01T11:49:25;99857.69;;;6.41;100.00
46241;BME280;31961;52.416;-0.732;2023-04-01T11:52:13;99865.15;;;4.41;100.00
46241;BME280;31961;52.416;-0.732;2023-04-01T11:55:05;99863.57;;;5.21;100.00
46241;BME280;31961;52.416;-0.732;2023-04-01T11:57:51;99872.58;;;5.45;100.00
46241;BME280;31961;52.416;-0.732;2023-04-01T12:00:39;99868.52;;;5.50;100.00
46241;BME280;31961;52.416;-0.732;2023-04-01T12:03:34;99873.27;;;5.58;100.00
46241;BME280;31961;52.416;-0.732;2023-04-01T12:06:16;99888.07;;;4.48;100.00
46241;BME280;31961;52.416;-0.732;2023-04-01T12:08:58;99893.84;;;4.65;100.00
46241;BME280;31961;52.416;-0.732;2023-04-01T12:11:36;99898.42;;;4.68;100.00
46241;BME280;31961;52.416;-0.732;2023-04-01T12:14:13;99902.27;;;4.94;100.00
46241;BME280;31961;52.416;-0.732;2023-04-01T12:16:55;99905.52;;;5.06;100.00
46241;BME280;31961;52.416;-0.732;2023-04-01T12:19:32;99898.24;;;5.51;100.00
46241;BME280;31961;52.416;-0.732;2023-04-01T12:22:23;99903.79;;;6.30;100.00
46241;BME280;31961;52.416;-0.732;2023-04-01T12:25:11;99914.38;;;5.69;100.00
46241;BME280;31961;52.416;-0.732;2023-04-01T12:27:52;99916.18;;;5.76;100.00
46241;BME280;31961;52.416;-0.732;2023-04-01T12:31:07;99923.30;;;5.35;100.00
46241;BME280;31961;52.416;-0.732;2023-04-01T12:33:56;99931.21;;;4.89;100.00
46241;BME280;31961;52.416;-0.732;2023-04-01T12:36:40;99935.23;;;5.57;100.00
46241;BME280;31961;52.416;-0.732;2023-04-01T12:39:29;99937.27;;;5.22;100.00
46241;BME280;31961;52.416;-0.732;2023-04-01T12:42:10;99939.55;;;5.33;100.00
46241;BME280;31961;52.416;-0.732;2023-04-01T12:44:53;99945.47;;;5.82;100.00
46241;BME280;31961;52.416;-0.732;2023-04-01T12:47:51;99945.83;;;5.59;100.00
46241;BME280;31961;52.416;-0.732;2023-04-01T12:50:37;99953.90;;;4.90;100.00
46241;BME280;31961;52.416;-0.732;2023-04-01T12:53:35;99955.01;;;4.33;100.00
46241;BME280;31961;52.416;-0.732;2023-04-01T12:56:22;99960.76;;;4.90;100.00
46241;BME280;31961;52.416;-0.732;2023-04-01T12:59:24;99970.41;;;4.93;100.00
46241;BME280;31961;52.416;-0.732;2023-04-01T13:02:13;99969.63;;;5.19;100.00
46241;BME280;31961;52.416;-0.732;2023-04-01T13:05:14;99971.41;;;4.94;100.00
46241;BME280;31961;52.416;-0.732;2023-04-01T13:08:05;99974.61;;;4.80;100.00
46241;BME280;31961;52.416;-0.732;2023-04-01T13:11:00;99981.04;;;4.88;100.00
46241;BME280;31961;52.416;-0.732;2023-04-01T13:13:53;99982.58;;;4.73;100.00
46241;BME280;31961;52.416;-0.732;2023-04-01T13:16:40;99983.99;;;4.73;100.00
46241;BME280;31961;52.416;-0.732;2023-04-01T13:19:29;99989.26;;;5.32;100.00
46241;BME280;31961;52.416;-0.732;2023-04-01T13:22:20;99984.63;;;5.45;100.00
46241;BME280;31961;52.416;-0.732;2023-04-01T13:25:01;99990.66;;;4.95;100.00
46241;BME280;31961;52.416;-0.732;2023-04-01T13:27:47;99991.72;;;5.04;100.00
46241;BME280;31961;52.416;-0.732;2023-04-01T13:30:33;99996.74;;;5.01;100.00
46241;BME280;31961;52.416;-0.732;2023-04-01T13:33:27;99998.29;;;5.07;100.00
46241;BME280;31961;52.416;-0.732;2023-04-01T13:36:41;100006.10;;;5.33;100.00
46241;BME280;31961;52.416;-0.732;2023-04-01T13:39:46;100010.94;;;5.00;100.00
46241;BME280;31961;52.416;-0.732;2023-04-01T13:42:33;100014.05;;;4.53;100.00
46241;BME280;31961;52.416;-0.732;2023-04-01T13:56:29;100028.65;;;6.05;100.00
46241;BME280;31961;52.416;-0.732;2023-04-01T13:59:13;100030.31;;;5.50;100.00
46241;BME280;31961;52.416;-0.732;2023-04-01T14:01:48;100037.19;;;5.12;100.00
46241;BME280;31961;52.416;-0.732;2023-04-01T14:05:10;100038.27;;;4.92;100.00
46241;BME280;31961;52.416;-0.732;2023-04-01T14:07:54;100048.69;;;5.14;100.00
46241;BME280;31961;52.416;-0.732;2023-04-01T14:10:34;100050.82;;;5.50;100.00
46241;BME280;31961;52.416;-0.732;2023-04-01T14:13:12;100053.74;;;5.44;100.00
46241;BME280;31961;52.416;-0.732;2023-04-01T14:15:55;100054.53;;;5.24;100.00
46241;BME280;31961;52.416;-0.732;2023-04-01T14:19:45;100053.70;;;5.64;100.00
46241;BME280;31961;52.416;-0.732;2023-04-01T14:22:25;100060.35;;;5.25;100.00
46241;BME280;31961;52.416;-0.732;2023-04-01T14:25:51;100062.13;;;5.20;100.00
46241;BME280;31961;52.416;-0.732;2023-04-01T14:28:30;100064.57;;;5.71;100.00
46241;BME280;31961;52.416;-0.732;2023-04-01T14:31:19;100066.87;;;6.23;100.00